createdAt,value
2022-10-23T00:03:44.004Z,38.30
2022-10-23T00:07:11.854Z,33.60
2022-10-23T00:10:42.025Z,29.60
2022-10-23T00:14:11.309Z,31.80
2022-10-23T00:17:38.657Z,31.30
2022-10-23T00:21:06.935Z,31.70
2022-10-23T00:24:34.968Z,33.20
2022-10-23T00:28:19.366Z,28.10
2022-10-23T00:31:46.627Z,30.30
2022-10-23T00:35:13.869Z,40.80
2022-10-23T00:38:42.015Z,35.20
2022-10-23T00:42:09.051Z,32.60
2022-10-23T00:45:36.582Z,38.10
2022-10-23T00:49:06.374Z,36.80
2022-10-23T00:52:35.543Z,37.20
2022-10-23T00:56:03.438Z,40.40
2022-10-23T00:59:31.289Z,43.60
2022-10-23T01:02:58.626Z,38.50
2022-10-23T01:06:37.136Z,41.70
2022-10-23T01:10:13.119Z,41.10
2022-10-23T01:13:46.155Z,43.20
2022-10-23T01:17:20.356Z,42.90
2022-10-23T01:20:53.344Z,50.70
2022-10-23T01:24:38.041Z,52.30
2022-10-23T01:28:08.115Z,46.60
2022-10-23T01:31:39.042Z,48.60
2022-10-23T01:35:13.526Z,45.20
2022-10-23T01:38:47.929Z,48.30
2022-10-23T01:42:23.449Z,54.20
2022-10-23T01:45:54.910Z,55.80
2022-10-23T01:49:24.524Z,66.50
2022-10-23T01:52:55.100Z,61.90
2022-10-23T01:56:28.775Z,57.60
2022-10-23T02:03:25.449Z,58.20
2022-10-23T02:06:52.912Z,61.20
2022-10-23T02:10:22.025Z,68.60
2022-10-23T02:13:57.106Z,66.80
2022-10-23T02:17:34.840Z,89.60
2022-10-23T02:21:07.330Z,67.60
2022-10-23T02:24:41.273Z,57.30
2022-10-23T02:28:14.544Z,52.00
2022-10-23T02:31:44.161Z,57.10
2022-10-23T02:35:12.601Z,48.80
2022-10-23T02:38:41.914Z,45.30
2022-10-23T02:42:13.560Z,59.10
2022-10-23T02:45:51.817Z,45.30
2022-10-23T02:49:26.263Z,46.00
2022-10-23T02:53:00.870Z,42.70
2022-10-23T02:56:38.524Z,45.00
2022-10-23T03:00:11.734Z,41.00
2022-10-23T03:07:07.163Z,35.80
2022-10-23T03:10:34.010Z,41.00
2022-10-23T03:14:01.644Z,48.80
2022-10-23T03:17:29.403Z,41.60
2022-10-23T03:20:58.409Z,33.60
2022-10-23T03:24:25.716Z,40.40
2022-10-23T03:27:52.643Z,45.10
2022-10-23T03:31:19.944Z,36.20
2022-10-23T03:34:48.913Z,49.00
2022-10-23T03:38:18.523Z,32.50
2022-10-23T03:41:45.331Z,31.90
2022-10-23T03:45:14.753Z,33.40
2022-10-23T03:48:42.394Z,41.70
2022-10-23T03:52:10.532Z,37.00
2022-10-23T03:55:38.061Z,38.00
2022-10-23T03:59:06.373Z,35.10
2022-10-23T04:02:33.956Z,37.00
2022-10-23T04:06:00.502Z,32.50
2022-10-23T04:09:28.525Z,32.40
2022-10-23T04:12:56.055Z,38.50
2022-10-23T04:16:22.601Z,35.40
2022-10-23T04:19:49.635Z,37.10
2022-10-23T04:23:17.388Z,37.10
2022-10-23T04:26:45.574Z,31.60
2022-10-23T04:30:14.663Z,46.30
2022-10-23T04:33:42.472Z,32.60
2022-10-23T04:37:09.751Z,37.80
2022-10-23T04:40:36.925Z,39.60
2022-10-23T04:44:05.171Z,29.60
2022-10-23T04:47:36.545Z,37.50
2022-10-23T04:51:06.192Z,36.80
2022-10-23T04:54:52.294Z,35.20
2022-10-23T04:58:28.379Z,33.80
2022-10-23T05:01:57.369Z,41.60
2022-10-23T05:05:24.377Z,44.30
2022-10-23T05:08:51.310Z,31.50
2022-10-23T05:12:25.819Z,37.10
2022-10-23T05:15:53.644Z,44.00
2022-10-23T05:19:28.187Z,51.00
2022-10-23T05:22:58.528Z,39.90
2022-10-23T05:26:25.220Z,46.40
2022-10-23T05:29:52.914Z,53.20
2022-10-23T05:33:23.987Z,36.50
2022-10-23T05:36:52.097Z,47.40
2022-10-23T05:40:19.698Z,37.80
2022-10-23T05:43:48.216Z,47.70
2022-10-23T05:47:34.510Z,33.20
2022-10-23T05:51:39.242Z,41.00
2022-10-23T05:55:34.215Z,51.20
2022-10-23T05:59:31.212Z,50.00
2022-10-23T06:03:14.804Z,53.30
2022-10-23T06:06:42.475Z,49.80
2022-10-23T06:10:10.450Z,41.00
2022-10-23T06:13:43.621Z,37.80
2022-10-23T06:17:12.265Z,61.10
2022-10-23T06:20:42.501Z,40.00
2022-10-23T06:24:13.764Z,33.50
2022-10-23T06:28:05.609Z,31.00
2022-10-23T06:31:32.991Z,31.60
2022-10-23T06:34:59.720Z,32.10
2022-10-23T06:38:27.078Z,32.00
2022-10-23T06:41:55.634Z,32.20
2022-10-23T06:45:42.541Z,33.10
2022-10-23T06:49:12.843Z,32.70
2022-10-23T06:52:47.632Z,35.70
2022-10-23T06:56:17.445Z,39.20
2022-10-23T06:59:45.416Z,34.90
2022-10-23T07:03:12.580Z,40.00
2022-10-23T07:06:39.999Z,47.40
2022-10-23T07:10:08.552Z,53.30
2022-10-23T07:13:44.633Z,49.80
2022-10-23T07:17:17.052Z,38.00
2022-10-23T07:20:44.161Z,46.10
2022-10-23T07:24:13.540Z,37.70
2022-10-23T07:27:41.587Z,34.10
2022-10-23T07:31:09.614Z,30.40
2022-10-23T07:35:10.622Z,37.40
2022-10-23T07:38:44.902Z,35.30
2022-10-23T07:42:12.920Z,37.00
2022-10-23T07:45:41.511Z,32.30
2022-10-23T07:49:16.078Z,33.20
2022-10-23T07:52:44.591Z,35.60
2022-10-23T07:56:19.840Z,34.70
2022-10-23T08:00:06.566Z,29.10
2022-10-23T08:03:40.693Z,31.40
2022-10-23T08:07:08.482Z,35.20
2022-10-23T08:10:41.952Z,31.00
2022-10-23T08:14:12.113Z,30.10
2022-10-23T08:17:39.912Z,34.10
2022-10-23T08:21:13.548Z,30.30
2022-10-23T08:24:40.372Z,30.20
2022-10-23T08:28:07.525Z,27.90
2022-10-23T08:31:40.959Z,35.10
2022-10-23T08:35:14.177Z,36.40
2022-10-23T08:38:41.272Z,36.80
2022-10-23T08:42:18.767Z,33.80
2022-10-23T08:45:51.368Z,35.80
2022-10-23T08:49:49.640Z,34.50
2022-10-23T08:53:23.767Z,30.90
2022-10-23T08:56:56.385Z,30.70
2022-10-23T09:00:23.440Z,30.40
2022-10-23T09:03:50.679Z,33.20
2022-10-23T09:07:30.127Z,40.30
2022-10-23T09:11:05.355Z,36.50
2022-10-23T09:14:55.548Z,27.90
2022-10-23T09:18:25.789Z,26.10
2022-10-23T09:21:53.441Z,23.40
2022-10-23T09:25:29.828Z,29.40
2022-10-23T09:29:07.701Z,25.30
2022-10-23T09:32:40.746Z,25.20
2022-10-23T09:36:11.422Z,26.60
2022-10-23T09:39:40.264Z,24.70
2022-10-23T09:43:18.068Z,29.40
2022-10-23T09:46:48.280Z,24.00
2022-10-23T09:50:25.546Z,25.90
2022-10-23T09:53:56.445Z,21.50
2022-10-23T09:57:30.757Z,17.90
2022-10-23T10:00:58.729Z,18.90
2022-10-23T10:04:43.422Z,21.70
2022-10-23T10:08:20.306Z,20.60
2022-10-23T10:11:51.573Z,22.30
2022-10-23T10:15:29.158Z,19.40
2022-10-23T10:19:04.729Z,19.50
2022-10-23T10:22:39.050Z,20.20
2022-10-23T10:26:17.711Z,21.20
2022-10-23T10:29:56.841Z,22.00
2022-10-23T10:33:42.298Z,21.90
2022-10-23T10:37:23.052Z,17.70
2022-10-23T10:41:10.587Z,20.60
2022-10-23T10:44:55.064Z,21.90
2022-10-23T10:48:43.865Z,19.20
2022-10-23T10:52:39.456Z,18.20
2022-10-23T10:59:43.419Z,25.00
2022-10-23T11:03:26.658Z,25.20
2022-10-23T11:06:56.240Z,27.90
2022-10-23T11:10:24.273Z,21.70
2022-10-23T11:13:54.348Z,25.80
2022-10-23T11:17:27.937Z,23.90
2022-10-23T11:21:08.756Z,25.30
2022-10-23T11:24:59.279Z,24.50
2022-10-23T11:28:43.008Z,26.10
2022-10-23T11:32:27.359Z,27.70
2022-10-23T11:36:07.292Z,23.60
2022-10-23T11:39:46.904Z,27.90
2022-10-23T11:43:14.979Z,32.10
2022-10-23T11:46:43.518Z,23.90
2022-10-23T11:50:31.688Z,27.70
2022-10-23T11:54:27.699Z,32.40
2022-10-23T11:58:18.836Z,41.40
2022-10-23T12:01:49.465Z,49.50
2022-10-23T12:05:35.094Z,50.40
2022-10-23T12:09:08.363Z,36.20
2022-10-23T12:12:41.425Z,25.30
2022-10-23T12:19:51.011Z,27.20
2022-10-23T12:23:34.147Z,22.60
2022-10-23T12:27:16.250Z,37.90
2022-10-23T12:30:52.116Z,29.50
2022-10-23T12:34:35.374Z,31.70
2022-10-23T12:38:15.217Z,32.00
2022-10-23T12:41:44.272Z,26.10
2022-10-23T12:45:25.437Z,25.00
2022-10-23T12:48:54.864Z,20.40
2022-10-23T12:52:25.138Z,23.20
2022-10-23T12:59:42.181Z,22.60
2022-10-23T13:03:14.193Z,19.10
2022-10-23T13:06:47.325Z,17.50
2022-10-23T13:10:21.644Z,25.00
2022-10-23T13:13:56.656Z,24.00
2022-10-23T13:17:23.514Z,19.00
2022-10-23T13:24:37.701Z,18.90
2022-10-23T13:28:24.188Z,14.40
2022-10-23T13:31:52.142Z,17.10
2022-10-23T13:35:25.771Z,18.10
2022-10-23T13:39:06.875Z,15.50
2022-10-23T13:42:33.646Z,15.00
2022-10-23T13:46:02.227Z,11.80
2022-10-23T13:49:30.929Z,11.90
2022-10-23T13:52:58.846Z,10.60
2022-10-23T13:56:28.518Z,13.30
2022-10-23T13:59:58.027Z,12.30
2022-10-23T14:03:36.416Z,14.20
2022-10-23T14:07:06.744Z,15.80
2022-10-23T14:10:35.375Z,11.50
2022-10-23T14:14:04.573Z,16.40
2022-10-23T14:17:35.779Z,13.60
2022-10-23T14:21:08.990Z,14.70
2022-10-23T14:28:01.804Z,8.10
2022-10-23T14:31:31.888Z,13.10
2022-10-23T14:35:04.003Z,16.20
2022-10-23T14:38:34.817Z,15.70
2022-10-23T14:42:02.388Z,10.10
2022-10-23T14:45:31.839Z,9.90
2022-10-23T14:49:02.505Z,18.70
2022-10-23T14:52:31.233Z,22.20
2022-10-23T14:56:05.999Z,23.40
2022-10-23T14:59:33.534Z,20.50
2022-10-23T15:03:02.560Z,18.50
2022-10-23T15:06:32.839Z,22.00
2022-10-23T15:10:07.129Z,19.20
2022-10-23T15:13:49.794Z,19.50
2022-10-23T15:17:21.163Z,19.70
2022-10-23T15:20:55.797Z,19.40
2022-10-23T15:24:35.232Z,21.10
2022-10-23T15:28:04.889Z,19.40
2022-10-23T15:32:02.224Z,19.30
2022-10-23T15:35:33.141Z,18.00
2022-10-23T15:39:25.103Z,21.30
2022-10-23T15:42:58.719Z,25.50
2022-10-23T15:46:27.942Z,30.90
2022-10-23T15:50:31.677Z,27.10
2022-10-23T15:54:33.529Z,24.40
2022-10-23T15:58:05.826Z,21.60
2022-10-23T16:01:39.696Z,27.00
2022-10-23T16:05:20.981Z,30.70
2022-10-23T16:08:50.220Z,32.40
2022-10-23T16:12:19.663Z,27.80
2022-10-23T16:15:47.361Z,31.10
2022-10-23T16:19:17.334Z,30.20
2022-10-23T16:22:48.110Z,22.30
2022-10-23T16:26:16.080Z,33.60
2022-10-23T16:29:44.081Z,35.50
2022-10-23T16:33:12.179Z,35.70
2022-10-23T16:36:40.591Z,44.60
2022-10-23T16:40:31.147Z,39.70
2022-10-23T16:44:18.233Z,45.30
2022-10-23T16:47:59.400Z,40.40
2022-10-23T16:51:29.662Z,33.20
2022-10-23T16:55:04.687Z,39.20
2022-10-23T16:58:33.010Z,30.90
2022-10-23T17:02:02.265Z,39.10
2022-10-23T17:05:29.974Z,32.20
2022-10-23T17:08:58.790Z,30.00
2022-10-23T17:12:27.184Z,26.90
2022-10-23T17:16:08.585Z,35.60
2022-10-23T17:19:46.034Z,44.00
2022-10-23T17:23:15.980Z,66.20
2022-10-23T17:26:46.289Z,60.40
2022-10-23T17:30:28.055Z,58.80
2022-10-23T17:34:02.763Z,52.40
2022-10-23T17:37:41.427Z,49.60
2022-10-23T17:41:30.680Z,50.80
2022-10-23T17:44:59.557Z,49.80
2022-10-23T17:48:31.708Z,44.30
2022-10-23T17:52:03.483Z,37.80
2022-10-23T17:55:31.671Z,30.70
2022-10-23T17:59:09.537Z,38.80
2022-10-23T18:02:42.435Z,26.90
2022-10-23T18:06:28.893Z,29.40
2022-10-23T18:10:01.313Z,29.10
2022-10-23T18:13:35.514Z,27.70
2022-10-23T18:17:09.838Z,25.40
2022-10-23T18:20:41.549Z,27.40
2022-10-23T18:24:11.703Z,31.60
2022-10-23T18:27:43.601Z,29.60
2022-10-23T18:31:16.951Z,33.80
2022-10-23T18:34:52.097Z,27.20
2022-10-23T18:38:26.945Z,30.50
2022-10-23T18:41:58.843Z,21.10
2022-10-23T18:45:29.750Z,31.50
2022-10-23T18:49:02.185Z,28.30
2022-10-23T18:52:38.947Z,37.60
2022-10-23T18:56:12.774Z,30.60
2022-10-23T18:59:44.318Z,30.30
2022-10-23T19:03:22.148Z,33.10
2022-10-23T19:06:52.471Z,32.90
2022-10-23T19:10:24.376Z,31.40
2022-10-23T19:13:54.498Z,27.20
2022-10-23T19:17:32.715Z,30.60
2022-10-23T19:21:04.968Z,31.00
2022-10-23T19:24:42.055Z,32.50
2022-10-23T19:28:25.575Z,30.60
2022-10-23T19:32:00.031Z,34.50
2022-10-23T19:35:39.464Z,35.40
2022-10-23T19:39:12.521Z,39.30
2022-10-23T19:42:52.228Z,42.70
2022-10-23T19:46:23.061Z,36.00
2022-10-23T19:49:55.288Z,39.60
2022-10-23T19:53:25.273Z,42.60
2022-10-23T19:56:58.073Z,40.10
2022-10-23T20:00:32.992Z,35.30
2022-10-23T20:04:01.063Z,41.20
2022-10-23T20:07:31.928Z,32.00
2022-10-23T20:11:00.971Z,34.10
2022-10-23T20:14:29.094Z,35.20
2022-10-23T20:17:58.931Z,33.90
2022-10-23T20:21:29.854Z,31.90
2022-10-23T20:24:58.197Z,30.90
2022-10-23T20:28:28.873Z,39.30
2022-10-23T20:31:56.561Z,44.40
2022-10-23T20:35:24.035Z,43.70
2022-10-23T20:38:52.352Z,46.60
2022-10-23T20:42:23.865Z,41.60
2022-10-23T20:45:52.316Z,37.40
2022-10-23T20:49:21.757Z,43.20
2022-10-23T20:52:49.954Z,36.50
2022-10-23T20:56:21.095Z,37.60
2022-10-23T20:59:50.929Z,41.20
2022-10-23T21:03:19.520Z,40.20
2022-10-23T21:07:08.494Z,39.80
2022-10-23T21:10:34.764Z,38.10
2022-10-23T21:14:05.456Z,41.30
2022-10-23T21:17:38.955Z,36.90
2022-10-23T21:24:33.061Z,31.90
2022-10-23T21:28:02.899Z,33.50
2022-10-23T21:31:33.367Z,32.30
2022-10-23T21:35:01.349Z,34.10
2022-10-23T21:38:29.163Z,36.70
2022-10-23T21:41:56.635Z,35.90
2022-10-23T21:45:34.128Z,35.90
2022-10-23T21:49:05.949Z,31.90
2022-10-23T21:52:34.955Z,29.90
2022-10-23T21:56:05.771Z,36.40
2022-10-23T21:59:36.344Z,30.90
2022-10-23T22:03:16.263Z,35.90
2022-10-23T22:07:15.563Z,34.70
2022-10-23T22:10:49.900Z,31.40
2022-10-23T22:14:22.577Z,36.60
2022-10-23T22:17:51.188Z,39.30
2022-10-23T22:21:23.038Z,34.30
2022-10-23T22:24:51.478Z,43.40
2022-10-23T22:28:18.900Z,32.30
2022-10-23T22:31:49.882Z,30.70
2022-10-23T22:35:17.409Z,34.20
2022-10-23T22:38:49.657Z,34.60
2022-10-23T22:42:19.338Z,36.50
2022-10-23T22:45:50.146Z,34.70
2022-10-23T22:49:20.568Z,36.30
2022-10-23T22:53:00.056Z,34.80
2022-10-23T22:56:34.362Z,34.60
2022-10-23T23:00:02.621Z,32.80
2022-10-23T23:03:31.201Z,36.50
2022-10-23T23:07:00.637Z,34.30
2022-10-23T23:10:28.589Z,37.10
2022-10-23T23:13:55.425Z,32.60
2022-10-23T23:17:23.832Z,38.80
2022-10-23T23:21:06.375Z,36.50
2022-10-23T23:24:39.150Z,35.90
2022-10-23T23:28:22.501Z,42.10
2022-10-23T23:31:58.164Z,42.70
2022-10-23T23:35:32.531Z,34.80
2022-10-23T23:42:32.896Z,33.10
2022-10-23T23:46:02.220Z,36.50
2022-10-23T23:49:30.745Z,31.00
2022-10-23T23:53:00.867Z,37.00
2022-10-23T23:56:32.382Z,36.30
